createdAt,value
2022-10-08T00:00:10.469Z,14.17
2022-10-08T00:01:15.054Z,17.00
2022-10-08T00:02:16.994Z,21.70
2022-10-08T00:03:20.262Z,15.20
2022-10-08T00:04:22.157Z,18.50
2022-10-08T00:05:23.850Z,8.27
2022-10-08T00:06:30.218Z,12.13
2022-10-08T00:07:32.291Z,14.33
2022-10-08T00:08:39.632Z,20.10
2022-10-08T00:09:42.637Z,23.47
2022-10-08T00:10:55.879Z,21.40
2022-10-08T00:11:57.938Z,12.50
2022-10-08T00:13:04.868Z,17.40
2022-10-08T00:14:08.361Z,15.07
2022-10-08T00:15:10.466Z,16.03
2022-10-08T00:16:14.077Z,25.10
2022-10-08T00:17:15.814Z,14.43
2022-10-08T00:18:17.567Z,17.63
2022-10-08T00:19:19.877Z,26.20
2022-10-08T00:20:23.162Z,10.20
2022-10-08T00:21:36.466Z,12.50
2022-10-08T00:22:38.282Z,16.13
2022-10-08T00:23:41.030Z,11.83
2022-10-08T00:24:42.739Z,11.67
2022-10-08T00:25:44.963Z,10.73
2022-10-08T00:26:47.218Z,10.80
2022-10-08T00:27:51.241Z,15.90
2022-10-08T00:28:56.277Z,11.80
2022-10-08T00:29:58.318Z,14.90
2022-10-08T00:31:06.518Z,10.53
2022-10-08T00:32:08.331Z,17.53
2022-10-08T00:33:10.635Z,22.67
2022-10-08T00:34:20.811Z,12.63
2022-10-08T00:35:23.149Z,9.37
2022-10-08T00:36:27.345Z,15.60
2022-10-08T00:37:29.189Z,12.10
2022-10-08T00:38:33.734Z,19.90
2022-10-08T00:39:35.954Z,26.00
2022-10-08T00:40:45.402Z,16.67
2022-10-08T00:41:52.214Z,12.60
2022-10-08T00:42:53.971Z,10.83
2022-10-08T00:44:03.360Z,11.73
2022-10-08T00:45:06.397Z,19.73
2022-10-08T00:46:15.282Z,18.13
2022-10-08T00:47:34.872Z,17.33
2022-10-08T00:48:37.278Z,14.73
2022-10-08T00:49:39.061Z,17.20
2022-10-08T00:50:41.651Z,11.67
2022-10-08T00:51:50.151Z,8.73
2022-10-08T00:52:58.860Z,12.80
2022-10-08T00:54:02.369Z,19.90
2022-10-08T00:55:07.585Z,12.10
2022-10-08T00:56:09.227Z,10.90
2022-10-08T00:57:11.939Z,14.97
2022-10-08T00:58:23.072Z,11.57
2022-10-08T00:59:26.962Z,16.27
2022-10-08T01:00:30.058Z,13.17
2022-10-08T01:01:32.439Z,9.07
2022-10-08T01:02:34.376Z,19.47
2022-10-08T01:03:36.165Z,17.43
2022-10-08T01:04:40.754Z,9.63
2022-10-08T01:05:48.337Z,19.70
2022-10-08T01:07:24.936Z,10.20
2022-10-08T01:08:36.250Z,23.07
2022-10-08T01:10:02.935Z,9.47
2022-10-08T01:11:04.869Z,10.77
2022-10-08T01:12:12.479Z,24.63
2022-10-08T01:13:22.496Z,9.40
2022-10-08T01:14:33.138Z,16.00
2022-10-08T01:15:51.653Z,11.63
2022-10-08T01:17:05.927Z,17.00
2022-10-08T01:18:11.341Z,19.00
2022-10-08T01:20:01.607Z,20.53
2022-10-08T01:21:12.124Z,16.13
2022-10-08T01:22:25.926Z,15.30
2022-10-08T01:23:55.675Z,19.23
2022-10-08T01:25:28.753Z,27.13
2022-10-08T01:26:46.153Z,14.60
2022-10-08T01:28:00.871Z,9.87
2022-10-08T01:29:21.769Z,16.47
2022-10-08T01:30:24.399Z,12.17
2022-10-08T01:31:39.485Z,12.63
2022-10-08T01:32:51.379Z,15.90
2022-10-08T01:34:08.262Z,19.30
2022-10-08T01:35:20.186Z,21.47
2022-10-08T01:36:23.833Z,21.37
2022-10-08T01:37:33.093Z,12.40
2022-10-08T01:38:41.430Z,12.70
2022-10-08T01:39:47.008Z,12.60
2022-10-08T01:40:53.103Z,16.30
2022-10-08T01:41:58.744Z,11.50
2022-10-08T01:43:01.836Z,10.87
2022-10-08T01:44:35.559Z,18.83
2022-10-08T01:45:43.585Z,9.70
2022-10-08T01:46:48.996Z,13.53
2022-10-08T01:47:52.308Z,13.87
2022-10-08T01:49:00.994Z,10.73
2022-10-08T01:50:23.408Z,11.20
2022-10-08T01:51:29.113Z,20.03
2022-10-08T01:52:37.356Z,13.60
2022-10-08T01:53:42.597Z,26.37
2022-10-08T01:54:48.349Z,14.90
2022-10-08T01:55:54.207Z,18.10
2022-10-08T01:56:59.227Z,19.30
2022-10-08T01:58:06.986Z,14.40
2022-10-08T01:59:14.395Z,18.10
2022-10-08T02:00:16.159Z,11.10
2022-10-08T02:01:24.189Z,15.50
2022-10-08T02:02:26.516Z,14.50
2022-10-08T02:03:28.169Z,15.60
2022-10-08T02:04:34.806Z,12.57
2022-10-08T02:05:43.609Z,19.40
2022-10-08T02:06:50.719Z,25.17
2022-10-08T02:07:54.273Z,12.07
2022-10-08T02:08:56.235Z,19.60
2022-10-08T02:10:12.270Z,19.10
2022-10-08T02:11:14.287Z,18.63
2022-10-08T02:12:16.407Z,25.33
2022-10-08T02:13:18.118Z,15.73
2022-10-08T02:14:25.800Z,17.00
2022-10-08T02:15:38.621Z,26.73
2022-10-08T02:16:48.159Z,19.27
2022-10-08T02:18:07.841Z,23.70
2022-10-08T02:19:16.026Z,24.53
2022-10-08T02:21:00.296Z,21.60
2022-10-08T02:22:06.186Z,21.20
2022-10-08T02:23:21.369Z,22.90
2022-10-08T02:24:43.723Z,20.83
2022-10-08T02:26:05.802Z,19.00
2022-10-08T02:27:11.131Z,21.93
2022-10-08T02:28:37.272Z,24.70
2022-10-08T02:29:51.317Z,25.40
2022-10-08T02:31:00.090Z,34.77
2022-10-08T02:32:36.519Z,22.00
2022-10-08T02:33:47.765Z,16.97
2022-10-08T02:35:10.018Z,24.50
2022-10-08T02:36:16.945Z,22.07
2022-10-08T02:37:25.671Z,30.70
2022-10-08T02:38:40.869Z,34.33
2022-10-08T02:39:49.290Z,28.23
2022-10-08T02:40:55.504Z,18.83
2022-10-08T02:42:02.285Z,18.43
2022-10-08T02:43:12.664Z,19.53
2022-10-08T02:44:20.114Z,14.50
2022-10-08T02:45:28.953Z,19.50
2022-10-08T02:46:36.170Z,23.43
2022-10-08T02:47:40.656Z,17.23
2022-10-08T02:48:47.872Z,19.77
2022-10-08T02:50:05.080Z,17.83
2022-10-08T02:51:12.109Z,17.37
2022-10-08T02:52:15.316Z,14.60
2022-10-08T02:53:18.332Z,18.47
2022-10-08T02:54:22.854Z,19.50
2022-10-08T02:55:35.836Z,16.43
2022-10-08T02:57:07.026Z,16.00
2022-10-08T02:58:12.864Z,17.13
2022-10-08T02:59:18.000Z,11.83
2022-10-08T03:00:19.954Z,19.63
2022-10-08T03:01:44.878Z,15.17
2022-10-08T03:02:58.789Z,12.80
2022-10-08T03:04:05.823Z,15.10
2022-10-08T03:05:17.941Z,18.70
2022-10-08T03:06:19.932Z,18.43
2022-10-08T03:07:24.366Z,19.67
2022-10-08T03:08:26.321Z,18.30
2022-10-08T03:09:41.274Z,17.67
2022-10-08T03:10:44.703Z,19.03
2022-10-08T03:11:47.199Z,19.17
2022-10-08T03:12:50.171Z,26.43
2022-10-08T03:13:58.294Z,19.00
2022-10-08T03:15:00.919Z,19.00
2022-10-08T03:16:06.275Z,18.23
2022-10-08T03:17:10.423Z,13.10
2022-10-08T03:18:13.000Z,15.17
2022-10-08T03:19:16.769Z,16.83
2022-10-08T03:20:18.539Z,19.30
2022-10-08T03:21:20.968Z,15.50
2022-10-08T03:22:24.230Z,29.57
2022-10-08T03:23:26.200Z,18.40
2022-10-08T03:24:28.075Z,12.50
2022-10-08T03:25:30.189Z,23.53
2022-10-08T03:26:31.822Z,17.20
2022-10-08T03:27:35.299Z,16.97
2022-10-08T03:28:38.159Z,15.23
2022-10-08T03:29:39.900Z,18.57
2022-10-08T03:30:41.537Z,17.10
2022-10-08T03:31:43.529Z,20.03
2022-10-08T03:32:45.447Z,17.50
2022-10-08T03:33:51.181Z,16.20
2022-10-08T03:34:54.991Z,19.17
2022-10-08T03:35:58.938Z,23.63
2022-10-08T03:37:00.473Z,27.67
2022-10-08T03:38:02.567Z,25.50
2022-10-08T03:39:04.207Z,34.77
2022-10-08T03:40:06.336Z,23.23
2022-10-08T03:41:09.479Z,19.83
2022-10-08T03:42:12.697Z,30.10
2022-10-08T03:43:14.400Z,19.40
2022-10-08T03:44:16.625Z,21.27
2022-10-08T03:45:18.464Z,18.53
2022-10-08T03:46:20.637Z,16.90
2022-10-08T03:47:22.256Z,13.03
2022-10-08T03:48:24.172Z,13.10
2022-10-08T03:49:25.697Z,16.57
2022-10-08T03:50:27.719Z,26.93
2022-10-08T03:51:29.848Z,23.40
2022-10-08T03:52:31.710Z,17.47
2022-10-08T03:53:34.810Z,20.07
2022-10-08T03:54:37.724Z,18.57
2022-10-08T03:55:39.965Z,18.80
2022-10-08T03:56:41.713Z,20.60
2022-10-08T03:57:43.833Z,11.07
2022-10-08T03:58:48.232Z,18.43
2022-10-08T03:59:51.954Z,22.23
2022-10-08T04:01:05.992Z,17.07
2022-10-08T04:02:07.887Z,18.43
2022-10-08T04:03:11.024Z,18.77
2022-10-08T04:04:12.721Z,22.13
2022-10-08T04:05:14.700Z,17.00
2022-10-08T04:06:16.480Z,14.60
2022-10-08T04:07:18.174Z,20.87
2022-10-08T04:08:22.010Z,15.77
2022-10-08T04:09:23.576Z,20.17
2022-10-08T04:10:25.642Z,12.77
2022-10-08T04:11:29.950Z,22.33
2022-10-08T04:12:31.581Z,16.73
2022-10-08T04:13:35.247Z,29.43
2022-10-08T04:14:36.703Z,13.10
2022-10-08T04:15:38.512Z,27.77
2022-10-08T04:16:40.341Z,15.07
2022-10-08T04:17:42.900Z,21.37
2022-10-08T04:18:46.174Z,17.40
2022-10-08T04:19:47.816Z,13.43
2022-10-08T04:20:49.359Z,19.63
2022-10-08T04:21:51.382Z,26.53
2022-10-08T04:22:53.116Z,13.33
2022-10-08T04:23:56.144Z,18.07
2022-10-08T04:24:59.924Z,28.33
2022-10-08T04:26:02.142Z,15.03
2022-10-08T04:27:03.934Z,12.87
2022-10-08T04:28:06.383Z,11.07
2022-10-08T04:29:13.275Z,13.90
2022-10-08T04:30:15.884Z,14.27
2022-10-08T04:31:20.687Z,15.10
2022-10-08T04:32:22.326Z,15.40
2022-10-08T04:33:24.673Z,16.93
2022-10-08T04:34:27.253Z,24.53
2022-10-08T04:35:28.848Z,11.83
2022-10-08T04:36:30.463Z,14.33
2022-10-08T04:37:32.044Z,10.23
2022-10-08T04:38:33.564Z,15.53
2022-10-08T04:39:35.291Z,13.70
2022-10-08T04:40:36.907Z,13.40
2022-10-08T04:41:38.522Z,19.07
2022-10-08T04:42:40.251Z,12.80
2022-10-08T04:43:43.959Z,16.23
2022-10-08T04:44:46.013Z,17.87
2022-10-08T04:45:48.974Z,18.93
2022-10-08T04:46:51.800Z,13.77
2022-10-08T04:47:53.975Z,15.40
2022-10-08T04:48:57.220Z,15.40
2022-10-08T04:49:58.800Z,27.43
2022-10-08T04:51:06.824Z,15.47
2022-10-08T04:52:12.058Z,17.80
2022-10-08T04:53:19.125Z,18.27
2022-10-08T04:54:20.645Z,18.70
2022-10-08T04:55:24.789Z,11.93
2022-10-08T04:56:28.889Z,18.03
2022-10-08T04:57:35.045Z,22.70
2022-10-08T04:58:37.127Z,11.20
2022-10-08T04:59:53.749Z,13.63
2022-10-08T05:01:08.340Z,16.90
2022-10-08T05:02:11.428Z,17.03
2022-10-08T05:03:13.299Z,24.97
2022-10-08T05:04:15.334Z,15.83
2022-10-08T05:05:17.060Z,15.53
2022-10-08T05:06:23.007Z,16.53
2022-10-08T05:07:24.572Z,17.23
2022-10-08T05:08:26.242Z,17.60
2022-10-08T05:09:30.414Z,15.13
2022-10-08T05:10:32.475Z,16.90
2022-10-08T05:11:34.546Z,19.80
2022-10-08T05:12:36.038Z,16.57
2022-10-08T05:13:37.996Z,17.97
2022-10-08T05:14:39.997Z,20.27
2022-10-08T05:15:41.631Z,14.60
2022-10-08T05:16:44.614Z,13.87
2022-10-08T05:17:46.731Z,13.20
2022-10-08T05:18:50.918Z,30.03
2022-10-08T05:19:53.657Z,18.93
2022-10-08T05:20:55.553Z,11.93
2022-10-08T05:21:57.098Z,21.70
2022-10-08T05:22:58.728Z,14.43
2022-10-08T05:24:09.017Z,15.80
2022-10-08T05:25:10.837Z,25.63
2022-10-08T05:26:41.553Z,17.43
2022-10-08T05:27:46.541Z,20.20
2022-10-08T05:28:48.840Z,14.73
2022-10-08T05:29:50.484Z,18.20
2022-10-08T05:30:52.780Z,15.50
2022-10-08T05:31:54.766Z,16.50
2022-10-08T05:33:00.587Z,18.43
2022-10-08T05:34:02.454Z,14.03
2022-10-08T05:35:04.475Z,17.30
2022-10-08T05:36:09.677Z,28.43
2022-10-08T05:37:11.450Z,15.87
2022-10-08T05:38:13.358Z,22.03
2022-10-08T05:39:15.333Z,13.73
2022-10-08T05:40:17.097Z,20.10
2022-10-08T05:41:24.128Z,30.00
2022-10-08T05:42:25.728Z,24.63
2022-10-08T05:43:27.272Z,14.80
2022-10-08T05:44:28.930Z,19.10
2022-10-08T05:45:30.780Z,10.73
2022-10-08T05:46:34.034Z,14.80
2022-10-08T05:47:35.782Z,11.73
2022-10-08T05:48:38.361Z,18.13
2022-10-08T05:49:39.960Z,9.87
2022-10-08T05:50:41.548Z,14.40
2022-10-08T05:51:43.236Z,26.97
2022-10-08T05:52:45.292Z,19.47
2022-10-08T05:53:50.574Z,9.30
2022-10-08T05:54:52.224Z,10.43
2022-10-08T05:56:01.143Z,14.93
2022-10-08T05:57:02.788Z,15.83
2022-10-08T05:58:04.347Z,20.23
2022-10-08T05:59:05.974Z,16.33
2022-10-08T06:00:08.840Z,20.10
2022-10-08T06:01:20.667Z,15.97
2022-10-08T06:02:22.785Z,15.43
2022-10-08T06:03:24.498Z,18.53
2022-10-08T06:04:26.161Z,21.37
2022-10-08T06:05:28.119Z,15.03
2022-10-08T06:06:31.101Z,15.50
2022-10-08T06:07:34.062Z,12.40
2022-10-08T06:08:37.258Z,11.33
2022-10-08T06:09:39.121Z,13.00
2022-10-08T06:10:52.133Z,9.00
2022-10-08T06:11:53.866Z,14.13
2022-10-08T06:12:55.443Z,17.83
2022-10-08T06:13:59.362Z,10.90
2022-10-08T06:15:00.901Z,16.07
2022-10-08T06:16:05.315Z,21.63
2022-10-08T06:17:07.209Z,24.03
2022-10-08T06:18:09.834Z,12.37
2022-10-08T06:19:11.646Z,12.43
2022-10-08T06:20:14.040Z,12.77
2022-10-08T06:21:18.143Z,10.53
2022-10-08T06:22:19.911Z,22.30
2022-10-08T06:23:22.828Z,10.90
2022-10-08T06:24:24.541Z,13.90
2022-10-08T06:25:26.102Z,16.67
2022-10-08T06:26:35.592Z,20.67
2022-10-08T06:27:37.890Z,17.53
2022-10-08T06:28:40.074Z,15.80
2022-10-08T06:29:42.456Z,10.33
2022-10-08T06:30:44.074Z,12.80
2022-10-08T06:31:46.394Z,18.80
2022-10-08T06:32:48.351Z,16.37
2022-10-08T06:33:50.235Z,16.63
2022-10-08T06:34:52.707Z,8.57
2022-10-08T06:35:56.176Z,15.70
2022-10-08T06:36:57.891Z,17.83
2022-10-08T06:37:59.432Z,23.03
2022-10-08T06:39:08.495Z,9.60
2022-10-08T06:40:11.228Z,13.87
2022-10-08T06:41:13.149Z,9.00
2022-10-08T06:42:14.667Z,8.23
2022-10-08T06:43:19.760Z,13.83
2022-10-08T06:44:21.637Z,7.43
2022-10-08T06:45:23.581Z,12.00
2022-10-08T06:46:26.334Z,12.10
2022-10-08T06:47:28.913Z,7.53
2022-10-08T06:48:30.963Z,14.80
2022-10-08T06:49:32.784Z,16.67
2022-10-08T06:50:35.375Z,13.03
2022-10-08T06:51:37.400Z,17.50
2022-10-08T06:52:39.279Z,14.13
2022-10-08T06:53:42.496Z,15.43
2022-10-08T06:54:44.172Z,12.73
2022-10-08T06:55:46.010Z,8.00
2022-10-08T06:56:47.572Z,20.83
2022-10-08T06:57:49.607Z,9.00
2022-10-08T06:58:52.953Z,14.17
2022-10-08T06:59:54.731Z,25.57
2022-10-08T07:01:09.988Z,18.97
2022-10-08T07:02:12.043Z,18.30
2022-10-08T07:03:14.040Z,13.90
2022-10-08T07:04:15.621Z,10.57
2022-10-08T07:05:17.884Z,14.10
2022-10-08T07:06:19.929Z,7.50
2022-10-08T07:07:21.533Z,7.57
2022-10-08T07:08:24.730Z,10.50
2022-10-08T07:09:26.530Z,8.93
2022-10-08T07:10:33.012Z,12.50
2022-10-08T07:11:35.716Z,21.50
2022-10-08T07:12:37.811Z,12.47
2022-10-08T07:13:40.350Z,14.17
2022-10-08T07:14:42.547Z,10.70
2022-10-08T07:15:44.155Z,11.80
2022-10-08T07:16:47.708Z,12.83
2022-10-08T07:17:49.486Z,13.87
2022-10-08T07:18:53.398Z,12.53
2022-10-08T07:19:58.982Z,19.53
2022-10-08T07:21:00.887Z,12.03
2022-10-08T07:22:02.782Z,14.80
2022-10-08T07:23:05.604Z,11.93
2022-10-08T07:24:07.575Z,20.67
2022-10-08T07:25:09.428Z,10.43
2022-10-08T07:26:17.061Z,10.87
2022-10-08T07:27:19.854Z,9.73
2022-10-08T07:28:21.890Z,16.50
2022-10-08T07:29:24.974Z,16.33
2022-10-08T07:30:26.718Z,12.80
2022-10-08T07:31:33.070Z,20.50
2022-10-08T07:32:34.869Z,17.43
2022-10-08T07:33:36.700Z,12.23
2022-10-08T07:34:39.574Z,14.23
2022-10-08T07:35:41.437Z,20.90
2022-10-08T07:36:43.565Z,30.87
2022-10-08T07:37:45.445Z,14.80
2022-10-08T07:38:48.075Z,15.43
2022-10-08T07:39:49.803Z,15.80
2022-10-08T07:40:55.390Z,17.97
2022-10-08T07:41:56.918Z,18.43
2022-10-08T07:42:58.482Z,9.73
2022-10-08T07:44:02.523Z,15.90
2022-10-08T07:45:05.008Z,18.33
2022-10-08T07:46:07.634Z,17.17
2022-10-08T07:47:11.370Z,15.10
2022-10-08T07:48:13.106Z,14.13
2022-10-08T07:49:16.506Z,11.63
2022-10-08T07:50:18.794Z,12.03
2022-10-08T07:51:20.858Z,11.60
2022-10-08T07:52:22.548Z,18.30
2022-10-08T07:53:24.188Z,13.40
2022-10-08T07:54:25.910Z,10.13
2022-10-08T07:55:28.033Z,13.13
2022-10-08T07:56:32.147Z,14.43
2022-10-08T07:57:34.766Z,21.40
2022-10-08T07:58:37.465Z,11.30
2022-10-08T07:59:39.349Z,12.90
2022-10-08T08:00:43.087Z,19.23
2022-10-08T08:01:45.302Z,7.53
2022-10-08T08:02:48.847Z,16.13
2022-10-08T08:03:55.184Z,11.03
2022-10-08T08:04:57.157Z,12.60
2022-10-08T08:06:13.915Z,12.77
2022-10-08T08:07:17.249Z,19.07
2022-10-08T08:08:18.867Z,13.70
2022-10-08T08:09:21.210Z,15.80
2022-10-08T08:10:23.138Z,20.07
2022-10-08T08:11:25.289Z,14.77
2022-10-08T08:12:26.881Z,13.53
2022-10-08T08:13:36.550Z,23.07
2022-10-08T08:14:39.631Z,9.00
2022-10-08T08:15:41.122Z,8.90
2022-10-08T08:16:43.088Z,11.20
2022-10-08T08:17:44.824Z,20.33
2022-10-08T08:18:49.623Z,6.70
2022-10-08T08:19:51.345Z,10.63
2022-10-08T08:21:20.829Z,13.43
2022-10-08T08:22:22.677Z,6.87
2022-10-08T08:23:24.416Z,11.30
2022-10-08T08:24:26.379Z,10.70
2022-10-08T08:25:29.384Z,14.00
2022-10-08T08:26:33.989Z,8.43
2022-10-08T08:27:35.733Z,10.93
2022-10-08T08:28:39.251Z,7.97
2022-10-08T08:29:41.477Z,5.63
2022-10-08T08:30:43.460Z,12.90
2022-10-08T08:31:47.907Z,5.27
2022-10-08T08:32:50.130Z,9.93
2022-10-08T08:33:54.697Z,15.33
2022-10-08T08:34:56.664Z,9.97
2022-10-08T08:35:58.383Z,12.50
2022-10-08T08:37:00.573Z,7.10
2022-10-08T08:38:02.268Z,10.57
2022-10-08T08:39:06.648Z,8.87
2022-10-08T08:40:09.738Z,14.30
2022-10-08T08:41:21.018Z,6.43
2022-10-08T08:42:49.699Z,8.77
2022-10-08T08:44:02.782Z,16.00
2022-10-08T08:45:48.128Z,3.90
2022-10-08T08:46:57.416Z,6.77
2022-10-08T08:48:23.202Z,5.80
2022-10-08T08:49:34.806Z,12.80
2022-10-08T08:50:40.731Z,10.70
2022-10-08T08:51:42.603Z,17.47
2022-10-08T08:52:45.645Z,8.30
2022-10-08T08:53:47.866Z,8.97
2022-10-08T08:54:53.426Z,11.10
2022-10-08T08:55:59.135Z,4.60
2022-10-08T08:57:34.307Z,7.37
2022-10-08T08:58:50.827Z,7.80
2022-10-08T08:59:55.948Z,5.70
2022-10-08T09:01:12.804Z,6.67
2022-10-08T09:02:24.199Z,8.13
2022-10-08T09:03:34.800Z,9.43
2022-10-08T09:04:44.908Z,5.73
2022-10-08T09:05:51.251Z,11.13
2022-10-08T09:06:56.514Z,9.63
2022-10-08T09:08:07.260Z,11.57
2022-10-08T09:09:47.302Z,10.50
2022-10-08T09:11:01.966Z,8.40
2022-10-08T09:12:21.150Z,11.17
2022-10-08T09:13:48.825Z,6.10
2022-10-08T09:14:54.583Z,8.60
2022-10-08T09:15:57.147Z,8.93
2022-10-08T09:17:02.320Z,6.90
2022-10-08T09:18:04.741Z,9.47
2022-10-08T09:19:06.664Z,4.70
2022-10-08T09:20:13.512Z,9.10
2022-10-08T09:21:16.181Z,6.37
2022-10-08T09:22:22.277Z,15.63
2022-10-08T09:23:26.044Z,6.80
2022-10-08T09:24:30.020Z,5.43
2022-10-08T09:25:34.522Z,10.53
2022-10-08T09:26:36.686Z,16.93
2022-10-08T09:27:55.408Z,12.27
2022-10-08T09:28:59.767Z,8.23
2022-10-08T09:30:01.590Z,15.73
2022-10-08T09:31:30.537Z,12.17
2022-10-08T09:32:32.404Z,8.13
2022-10-08T09:33:34.982Z,13.43
2022-10-08T09:34:37.128Z,5.80
2022-10-08T09:35:51.646Z,9.30
2022-10-08T09:37:02.113Z,8.60
2022-10-08T09:38:06.080Z,6.60
2022-10-08T09:39:24.390Z,12.40
2022-10-08T09:40:28.046Z,5.23
2022-10-08T09:41:30.367Z,6.63
2022-10-08T09:42:31.899Z,17.53
2022-10-08T09:43:35.020Z,4.97
2022-10-08T09:44:50.359Z,14.80
2022-10-08T09:45:54.517Z,13.00
2022-10-08T09:47:05.695Z,15.73
2022-10-08T09:48:30.691Z,6.33
2022-10-08T09:49:39.932Z,13.00
2022-10-08T09:50:50.866Z,9.33
2022-10-08T09:51:54.095Z,10.23
2022-10-08T09:52:56.229Z,12.07
2022-10-08T09:53:59.956Z,5.63
2022-10-08T09:55:09.983Z,10.90
2022-10-08T09:56:13.907Z,7.90
2022-10-08T09:57:21.085Z,8.23
2022-10-08T09:58:24.052Z,6.33
2022-10-08T09:59:29.161Z,14.03
2022-10-08T10:00:32.793Z,5.60
2022-10-08T10:01:45.587Z,5.07
2022-10-08T10:02:54.133Z,9.20
2022-10-08T10:03:59.076Z,11.20
2022-10-08T10:05:04.384Z,4.57
2022-10-08T10:06:06.319Z,11.73
2022-10-08T10:07:08.045Z,11.83
2022-10-08T10:08:46.541Z,18.43
2022-10-08T10:09:57.506Z,6.77
2022-10-08T10:11:00.487Z,9.37
2022-10-08T10:12:25.029Z,11.40
2022-10-08T10:13:36.631Z,4.90
2022-10-08T10:14:52.253Z,11.33
2022-10-08T10:16:00.532Z,8.37
2022-10-08T10:17:08.726Z,10.70
2022-10-08T10:18:19.202Z,7.27
2022-10-08T10:19:25.755Z,10.53
2022-10-08T10:20:37.191Z,6.57
2022-10-08T10:22:01.277Z,8.80
2022-10-08T10:23:11.426Z,10.30
2022-10-08T10:24:31.009Z,10.80
2022-10-08T10:25:57.536Z,14.53
2022-10-08T10:27:10.348Z,11.10
2022-10-08T10:28:16.012Z,37.60
2022-10-08T10:29:22.670Z,11.97
2022-10-08T10:30:27.202Z,12.87
2022-10-08T10:31:33.686Z,5.00
2022-10-08T10:32:44.940Z,10.80
2022-10-08T10:33:54.526Z,7.70
2022-10-08T10:35:06.125Z,9.30
2022-10-08T10:36:13.870Z,11.57
2022-10-08T10:37:34.154Z,10.23
2022-10-08T10:38:43.292Z,14.03
2022-10-08T10:39:54.117Z,8.17
2022-10-08T10:41:20.382Z,10.53
2022-10-08T10:42:25.131Z,7.27
2022-10-08T10:43:49.021Z,9.63
2022-10-08T10:45:01.695Z,12.83
2022-10-08T10:46:12.553Z,11.77
2022-10-08T10:47:17.571Z,6.50
2022-10-08T10:48:19.406Z,12.03
2022-10-08T10:49:34.567Z,15.73
2022-10-08T10:51:12.817Z,11.17
2022-10-08T10:52:36.022Z,10.20
2022-10-08T10:53:50.102Z,10.67
2022-10-08T10:55:13.438Z,11.60
2022-10-08T10:56:20.219Z,6.93
2022-10-08T10:57:40.391Z,8.63
2022-10-08T10:58:58.510Z,11.77
2022-10-08T11:00:13.342Z,17.23
2022-10-08T11:01:34.635Z,6.53
2022-10-08T11:02:59.195Z,8.57
2022-10-08T11:04:03.862Z,14.90
2022-10-08T11:05:22.154Z,9.33
2022-10-08T11:06:36.135Z,7.67
2022-10-08T11:07:49.986Z,16.27
2022-10-08T11:09:10.746Z,8.90
2022-10-08T11:10:32.820Z,10.53
2022-10-08T11:11:41.364Z,13.20
2022-10-08T11:12:56.602Z,8.40
2022-10-08T11:14:15.862Z,13.37
2022-10-08T11:15:29.577Z,8.93
2022-10-08T11:16:46.062Z,7.67
2022-10-08T11:17:51.984Z,10.17
2022-10-08T11:18:56.693Z,6.60
2022-10-08T11:20:10.120Z,7.60
2022-10-08T11:21:33.593Z,9.53
2022-10-08T11:22:35.417Z,7.27
2022-10-08T11:24:13.613Z,7.07
2022-10-08T11:25:18.081Z,8.27
2022-10-08T11:26:33.057Z,8.10
2022-10-08T11:28:03.981Z,6.57
2022-10-08T11:29:17.493Z,6.67
2022-10-08T11:30:28.279Z,8.50
2022-10-08T11:31:48.367Z,6.63
2022-10-08T11:32:53.011Z,7.40
2022-10-08T11:33:56.812Z,8.57
2022-10-08T11:35:22.208Z,11.57
2022-10-08T11:36:33.283Z,12.13
2022-10-08T11:37:44.619Z,9.07
2022-10-08T11:39:18.183Z,8.83
2022-10-08T11:40:27.580Z,14.57
2022-10-08T11:41:48.456Z,16.47
2022-10-08T11:43:08.198Z,5.97
2022-10-08T11:44:11.672Z,8.73
2022-10-08T11:45:15.345Z,12.50
2022-10-08T11:46:34.405Z,9.20
2022-10-08T11:47:49.608Z,5.40
2022-10-08T11:48:51.336Z,7.43
2022-10-08T11:49:55.665Z,11.33
2022-10-08T11:51:19.243Z,8.50
2022-10-08T11:52:20.767Z,8.00
2022-10-08T11:53:22.957Z,5.20
2022-10-08T11:54:35.505Z,9.00
2022-10-08T11:55:38.626Z,3.97
2022-10-08T11:56:42.108Z,6.40
2022-10-08T11:58:07.701Z,6.97
2022-10-08T11:59:48.293Z,5.47
2022-10-08T12:00:53.771Z,5.37
2022-10-08T12:01:59.035Z,3.73
2022-10-08T12:03:01.357Z,9.17
2022-10-08T12:04:10.816Z,2.60
2022-10-08T12:05:34.416Z,9.67
2022-10-08T12:06:36.795Z,7.43
2022-10-08T12:07:39.902Z,4.83
2022-10-08T12:08:53.622Z,4.57
2022-10-08T12:10:08.568Z,5.73
2022-10-08T12:11:33.594Z,14.40
2022-10-08T12:12:50.842Z,6.10
2022-10-08T12:14:18.758Z,9.50
2022-10-08T12:15:23.188Z,4.67
2022-10-08T12:16:47.994Z,8.30
2022-10-08T12:17:55.324Z,8.53
2022-10-08T12:18:58.096Z,9.10
2022-10-08T12:20:25.849Z,6.97
2022-10-08T12:21:27.819Z,8.57
2022-10-08T12:22:29.361Z,5.47
2022-10-08T12:23:38.727Z,16.33
2022-10-08T12:24:40.286Z,6.90
2022-10-08T12:26:02.676Z,6.10
2022-10-08T12:27:30.269Z,5.87
2022-10-08T12:28:54.745Z,11.07
2022-10-08T12:29:56.448Z,6.03
2022-10-08T12:31:16.099Z,7.57
2022-10-08T12:32:18.061Z,11.23
2022-10-08T12:33:20.810Z,5.20
2022-10-08T12:34:23.415Z,9.30
2022-10-08T12:35:31.475Z,5.83
2022-10-08T12:36:50.428Z,6.27
2022-10-08T12:37:58.058Z,5.87
2022-10-08T12:39:24.973Z,5.30
2022-10-08T12:40:54.643Z,8.23
2022-10-08T12:42:20.995Z,5.90
2022-10-08T12:43:41.977Z,2.80
2022-10-08T12:45:02.422Z,17.93
2022-10-08T12:46:17.745Z,5.40
2022-10-08T12:47:42.852Z,3.27
2022-10-08T12:48:57.914Z,5.77
2022-10-08T12:50:24.955Z,9.13
2022-10-08T12:51:47.021Z,7.53
2022-10-08T12:52:49.071Z,3.50
2022-10-08T12:53:50.765Z,2.90
2022-10-08T12:54:57.459Z,7.27
2022-10-08T12:56:00.068Z,4.87
2022-10-08T12:57:08.989Z,6.33
2022-10-08T12:58:19.049Z,8.60
2022-10-08T12:59:24.122Z,5.90
2022-10-08T13:00:31.413Z,7.40
2022-10-08T13:01:37.971Z,5.57
2022-10-08T13:02:42.717Z,7.37
2022-10-08T13:03:44.673Z,10.57
2022-10-08T13:04:46.994Z,2.53
2022-10-08T13:05:49.860Z,4.43
2022-10-08T13:06:53.972Z,6.20
2022-10-08T13:07:57.525Z,4.73
2022-10-08T13:08:59.472Z,4.30
2022-10-08T13:10:17.358Z,3.13
2022-10-08T13:11:20.659Z,1.83
2022-10-08T13:12:22.757Z,3.23
2022-10-08T13:13:39.696Z,1.80
2022-10-08T13:14:41.527Z,4.53
2022-10-08T13:15:43.159Z,3.30
2022-10-08T13:16:46.791Z,3.00
2022-10-08T13:17:50.501Z,6.27
2022-10-08T13:19:00.529Z,7.10
2022-10-08T13:20:17.091Z,2.40
2022-10-08T13:21:55.463Z,1.40
2022-10-08T13:22:58.201Z,2.57
2022-10-08T13:24:21.361Z,1.90
2022-10-08T13:25:38.567Z,2.70
2022-10-08T13:26:52.170Z,3.47
2022-10-08T13:28:09.358Z,3.83
2022-10-08T13:29:30.999Z,1.80
2022-10-08T13:30:33.835Z,2.10
2022-10-08T13:31:36.222Z,6.27
2022-10-08T13:32:39.540Z,5.00
2022-10-08T13:33:41.392Z,2.00
2022-10-08T13:34:47.188Z,5.13
2022-10-08T13:36:00.084Z,9.17
2022-10-08T13:37:06.374Z,4.47
2022-10-08T13:38:16.149Z,2.27
2022-10-08T13:39:26.446Z,3.80
2022-10-08T13:40:28.054Z,3.67
2022-10-08T13:41:29.669Z,7.23
2022-10-08T13:42:35.007Z,4.60
2022-10-08T13:43:36.866Z,4.57
2022-10-08T13:44:40.429Z,2.43
2022-10-08T13:45:42.042Z,4.80
2022-10-08T13:46:44.018Z,4.33
2022-10-08T13:47:46.189Z,1.77
2022-10-08T13:48:48.160Z,2.03
2022-10-08T13:49:51.123Z,2.10
2022-10-08T13:50:53.855Z,2.03
2022-10-08T13:51:59.414Z,3.20
2022-10-08T13:53:01.868Z,4.03
2022-10-08T13:54:03.642Z,1.40
2022-10-08T13:55:16.168Z,5.43
2022-10-08T13:56:21.371Z,1.33
2022-10-08T13:57:23.442Z,6.97
2022-10-08T13:58:25.113Z,10.17
2022-10-08T13:59:30.463Z,3.13
2022-10-08T14:00:35.914Z,9.80
2022-10-08T14:01:37.789Z,3.80
2022-10-08T14:02:39.698Z,6.30
2022-10-08T14:03:41.526Z,3.63
2022-10-08T14:04:43.274Z,4.40
2022-10-08T14:05:48.158Z,3.87
2022-10-08T14:06:54.517Z,4.90
2022-10-08T14:08:04.151Z,2.80
2022-10-08T14:09:08.537Z,2.23
2022-10-08T14:10:13.526Z,1.57
2022-10-08T14:11:18.182Z,1.93
2022-10-08T14:12:23.965Z,3.33
2022-10-08T14:13:26.289Z,2.70
2022-10-08T14:14:28.684Z,8.30
2022-10-08T14:15:30.497Z,2.40
2022-10-08T14:16:33.515Z,1.60
2022-10-08T14:17:35.162Z,5.30
2022-10-08T14:18:36.796Z,3.33
2022-10-08T14:19:38.455Z,3.03
2022-10-08T14:20:40.293Z,1.27
2022-10-08T14:21:42.045Z,3.50
2022-10-08T14:22:43.755Z,1.40
2022-10-08T14:23:45.364Z,2.10
2022-10-08T14:24:47.303Z,5.73
2022-10-08T14:25:48.941Z,3.53
2022-10-08T14:26:51.010Z,2.80
2022-10-08T14:27:53.041Z,3.53
2022-10-08T14:28:54.866Z,4.20
2022-10-08T14:29:56.755Z,2.70
2022-10-08T14:30:58.705Z,7.57
2022-10-08T14:32:00.892Z,4.60
2022-10-08T14:33:06.583Z,2.03
2022-10-08T14:34:12.448Z,5.43